الصفحة الرئيسية
METAR-TAF:

METAR-TAF

مطار :

طشقند, أوزبكستان

دائرة عرض: 41-16N, خط طول: 069-16E, ارتفاع: 489 متر

مراقبة الطقس الحالي

تاريخ ووقت الإصدار 21 دقيقة قبل الساعة 03:00UTC
ريح 6 عقدة من الشرق, الاتجاه يتراوح بين الشمال/الشمال الشرقي و الجنوب الشرقي
درجة الحرارة 1°درجة مئوية
الرطوبة 80%
ضغط 1024 hPa
الرؤية: 4000 متر
غيوم متفرقة على ارتفاع 6600 قدم, مزنة ركامية.
غشاء

METAR: UTTT 010300Z 08006KT 030V140 4000 BR SCT066CB 01/M02 Q1024 R08R/CLRD70 NOSIG

زمن: 08:21 (03:21 UTC)

توقعات

تاريخ ووقت الإصدار 36 دقيقة قبل الساعة 02:45UTC
التوقعات صالحة من01 الساعة 03 UTC إلى 01 الساعة 24 UTC
ريح 12 عقدة من الغرب
الرؤية: 7000 متر
غيوم قليلة على ارتفاع 6000 قدم, مزنة ركامية.
غيوم مفككة على ارتفاع 10000 قدم
مؤقت
من 01 الساعة 06 UTC إلى 01 الساعة 18 UTC
ريح 12 عقدة من الشمال الغربي تتزايد حتى 22 عقدة
الرؤية: 3000 متر
غيوم مفككة على ارتفاع 4000 قدم, مزنة ركامية.
ملبد بالغيوم على ارتفاع 10000 قدم
زخات من الأمطار الخفيفة, غشاء

TAF: UTTT 010245Z 0103/0124 26012KT 7000 FEW060CB BKN100 TEMPO 0106/0118 32012G22KT 3000 -SHRA BR BKN040CB OVC100

أرصاد الطقس والتوقعات من أكثر من 4000 مطار (تقارير الطقس للمطار METAR والتنبؤ بالطقس بالمطارTAF).

المحطات المتاحة هي النقط الصفراء والحمراء على الخريطة.

حرك المؤشر فوق النقطة لمعرفة اسم المحطة.

ثم انقر لمعرفة أرصاد وتوقعات الطقس.

لتغيير الخارطة: اضغط على الأزرار الخضراء مع رمز الصليب الأسود للتكبير. على الزر الأخضر مع شرطة للتصغير، أو على الأسهم الخضراء للخرائط المجاورة.


METAR-TAF: